sensor_id;sensor_type;location;lat;lon;timestamp;P1;durP1;ratioP1;P2;durP2;ratioP2
11269;SDS011;5692;48.956;9.200;2023-09-12T00:01:16;234.57;;;223.33;;
11269;SDS011;5692;48.956;9.200;2023-09-12T00:03:42;227.88;;;216.98;;
11269;SDS011;5692;48.956;9.200;2023-09-12T00:06:08;232.20;;;221.10;;
11269;SDS011;5692;48.956;9.200;2023-09-12T00:08:34;225.90;;;215.10;;
11269;SDS011;5692;48.956;9.200;2023-09-12T00:11:05;234.03;;;222.87;;
11269;SDS011;5692;48.956;9.200;2023-09-12T00:13:35;242.98;;;231.38;;
11269;SDS011;5692;48.956;9.200;2023-09-12T00:16:01;228.23;;;217.33;;
11269;SDS011;5692;48.956;9.200;2023-09-12T00:18:27;226.23;;;215.43;;
11269;SDS011;5692;48.956;9.200;2023-09-12T00:20:53;223.15;;;212.48;;
11269;SDS011;5692;48.956;9.200;2023-09-12T00:23:20;228.45;;;217.55;;
11269;SDS011;5692;48.956;9.200;2023-09-12T00:25:46;232.63;;;221.52;;
11269;SDS011;5692;48.956;9.200;2023-09-12T00:28:12;227.10;;;216.23;;
11269;SDS011;5692;48.956;9.200;2023-09-12T00:30:38;230.63;;;219.60;;
11269;SDS011;5692;48.956;9.200;2023-09-12T00:33:04;218.57;;;208.10;;
11269;SDS011;5692;48.956;9.200;2023-09-12T00:35:30;217.27;;;206.87;;
11269;SDS011;5692;48.956;9.200;2023-09-12T00:37:56;213.97;;;203.73;;
11269;SDS011;5692;48.956;9.200;2023-09-12T00:40:22;224.00;;;213.27;;
11269;SDS011;5692;48.956;9.200;2023-09-12T00:42:48;218.97;;;208.50;;
11269;SDS011;5692;48.956;9.200;2023-09-12T00:45:14;208.32;;;198.35;;
11269;SDS011;5692;48.956;9.200;2023-09-12T00:47:40;231.43;;;220.35;;
11269;SDS011;5692;48.956;9.200;2023-09-12T00:50:06;222.27;;;211.65;;
11269;SDS011;5692;48.956;9.200;2023-09-12T00:52:33;226.80;;;215.95;;
11269;SDS011;5692;48.956;9.200;2023-09-12T00:55:00;198.90;;;189.40;;
11269;SDS011;5692;48.956;9.200;2023-09-12T00:57:27;217.82;;;207.43;;
11269;SDS011;5692;48.956;9.200;2023-09-12T00:59:53;221.18;;;210.57;;
11269;SDS011;5692;48.956;9.200;2023-09-12T01:02:20;222.77;;;212.13;;
11269;SDS011;5692;48.956;9.200;2023-09-12T01:04:47;223.60;;;212.90;;
11269;SDS011;5692;48.956;9.200;2023-09-12T01:07:13;227.98;;;217.07;;
11269;SDS011;5692;48.956;9.200;2023-09-12T01:09:40;218.27;;;207.82;;
11269;SDS011;5692;48.956;9.200;2023-09-12T01:12:06;218.35;;;207.93;;
11269;SDS011;5692;48.956;9.200;2023-09-12T01:14:32;220.75;;;210.20;;
11269;SDS011;5692;48.956;9.200;2023-09-12T01:16:58;203.45;;;193.75;;
11269;SDS011;5692;48.956;9.200;2023-09-12T01:19:26;208.35;;;198.40;;
11269;SDS011;5692;48.956;9.200;2023-09-12T01:27:22;213.60;;;203.38;;
11269;SDS011;5692;48.956;9.200;2023-09-12T01:29:51;221.38;;;210.80;;
11269;SDS011;5692;48.956;9.200;2023-09-12T01:32:19;212.32;;;202.18;;
11269;SDS011;5692;48.956;9.200;2023-09-12T01:34:45;217.55;;;207.15;;
11269;SDS011;5692;48.956;9.200;2023-09-12T01:37:11;193.25;;;184.00;;
11269;SDS011;5692;48.956;9.200;2023-09-12T01:39:37;213.00;;;202.80;;
11269;SDS011;5692;48.956;9.200;2023-09-12T01:42:03;200.03;;;190.47;;
11269;SDS011;5692;48.956;9.200;2023-09-12T01:44:30;211.50;;;201.40;;
11269;SDS011;5692;48.956;9.200;2023-09-12T01:46:57;207.52;;;197.57;;
11269;SDS011;5692;48.956;9.200;2023-09-12T01:49:27;212.57;;;202.38;;
11269;SDS011;5692;48.956;9.200;2023-09-12T01:51:53;204.73;;;194.93;;
11269;SDS011;5692;48.956;9.200;2023-09-12T01:54:20;211.00;;;200.90;;
11269;SDS011;5692;48.956;9.200;2023-09-12T01:56:46;218.32;;;207.88;;
11269;SDS011;5692;48.956;9.200;2023-09-12T01:59:13;230.85;;;219.82;;
11269;SDS011;5692;48.956;9.200;2023-09-12T02:01:39;213.30;;;203.10;;
11269;SDS011;5692;48.956;9.200;2023-09-12T02:04:06;210.75;;;200.68;;
11269;SDS011;5692;48.956;9.200;2023-09-12T02:06:34;220.38;;;209.82;;
11269;SDS011;5692;48.956;9.200;2023-09-12T02:09:00;206.52;;;196.65;;
11269;SDS011;5692;48.956;9.200;2023-09-12T02:11:27;225.90;;;215.10;;
11269;SDS011;5692;48.956;9.200;2023-09-12T02:13:53;226.65;;;215.82;;
11269;SDS011;5692;48.956;9.200;2023-09-12T02:16:18;219.30;;;208.80;;
11269;SDS011;5692;48.956;9.200;2023-09-12T02:18:44;212.60;;;202.40;;
11269;SDS011;5692;48.956;9.200;2023-09-12T02:21:10;208.23;;;198.23;;
11269;SDS011;5692;48.956;9.200;2023-09-12T02:23:37;203.80;;;194.00;;
11269;SDS011;5692;48.956;9.200;2023-09-12T02:26:03;217.80;;;207.37;;
11269;SDS011;5692;48.956;9.200;2023-09-12T02:28:28;194.57;;;185.23;;
11269;SDS011;5692;48.956;9.200;2023-09-12T02:30:54;196.30;;;186.90;;
11269;SDS011;5692;48.956;9.200;2023-09-12T02:33:20;211.20;;;201.10;;
11269;SDS011;5692;48.956;9.200;2023-09-12T02:35:46;204.33;;;194.53;;
11269;SDS011;5692;48.956;9.200;2023-09-12T02:38:13;191.40;;;182.20;;
11269;SDS011;5692;48.956;9.200;2023-09-12T02:40:39;204.38;;;194.60;;
11269;SDS011;5692;48.956;9.200;2023-09-12T02:43:05;197.90;;;188.40;;
11269;SDS011;5692;48.956;9.200;2023-09-12T02:45:31;189.93;;;180.83;;
11269;SDS011;5692;48.956;9.200;2023-09-12T02:47:57;209.75;;;199.70;;
11269;SDS011;5692;48.956;9.200;2023-09-12T02:50:23;217.50;;;207.10;;
11269;SDS011;5692;48.956;9.200;2023-09-12T02:52:49;218.33;;;207.90;;
11269;SDS011;5692;48.956;9.200;2023-09-12T02:55:15;202.40;;;192.73;;
11269;SDS011;5692;48.956;9.200;2023-09-12T02:57:41;199.37;;;189.83;;
11269;SDS011;5692;48.956;9.200;2023-09-12T03:00:07;210.57;;;200.50;;
11269;SDS011;5692;48.956;9.200;2023-09-12T03:02:34;203.25;;;193.50;;
11269;SDS011;5692;48.956;9.200;2023-09-12T03:05:00;207.65;;;197.73;;
11269;SDS011;5692;48.956;9.200;2023-09-12T03:07:29;209.82;;;199.77;;
11269;SDS011;5692;48.956;9.200;2023-09-12T03:09:55;207.10;;;197.18;;
11269;SDS011;5692;48.956;9.200;2023-09-12T03:12:21;194.50;;;185.20;;
11269;SDS011;5692;48.956;9.200;2023-09-12T03:14:47;194.93;;;185.63;;
11269;SDS011;5692;48.956;9.200;2023-09-12T03:17:13;192.93;;;183.70;;
11269;SDS011;5692;48.956;9.200;2023-09-12T03:19:39;188.75;;;179.75;;
11269;SDS011;5692;48.956;9.200;2023-09-12T03:22:05;193.40;;;184.13;;
11269;SDS011;5692;48.956;9.200;2023-09-12T03:24:31;196.47;;;187.07;;
11269;SDS011;5692;48.956;9.200;2023-09-12T03:26:57;187.60;;;178.60;;
11269;SDS011;5692;48.956;9.200;2023-09-12T03:29:23;199.57;;;190.00;;
11269;SDS011;5692;48.956;9.200;2023-09-12T03:31:49;189.90;;;180.80;;
11269;SDS011;5692;48.956;9.200;2023-09-12T03:34:15;196.10;;;186.70;;
11269;SDS011;5692;48.956;9.200;2023-09-12T03:36:41;193.80;;;184.53;;
11269;SDS011;5692;48.956;9.200;2023-09-12T03:39:07;195.37;;;186.00;;
11269;SDS011;5692;48.956;9.200;2023-09-12T03:41:34;188.20;;;179.20;;
11269;SDS011;5692;48.956;9.200;2023-09-12T03:44:00;174.68;;;166.27;;
11269;SDS011;5692;48.956;9.200;2023-09-12T03:46:26;176.87;;;168.37;;
11269;SDS011;5692;48.956;9.200;2023-09-12T03:48:52;182.07;;;173.35;;
11269;SDS011;5692;48.956;9.200;2023-09-12T03:51:17;178.83;;;170.23;;
11269;SDS011;5692;48.956;9.200;2023-09-12T03:53:43;180.23;;;171.60;;
11269;SDS011;5692;48.956;9.200;2023-09-12T03:56:12;172.02;;;163.80;;
11269;SDS011;5692;48.956;9.200;2023-09-12T03:58:39;178.73;;;170.15;;
11269;SDS011;5692;48.956;9.200;2023-09-12T04:01:05;181.55;;;172.88;;
11269;SDS011;5692;48.956;9.200;2023-09-12T04:03:31;195.43;;;186.07;;
11269;SDS011;5692;48.956;9.200;2023-09-12T04:05:57;190.80;;;181.67;;
11269;SDS011;5692;48.956;9.200;2023-09-12T04:08:23;208.27;;;198.27;;
11269;SDS011;5692;48.956;9.200;2023-09-12T04:10:49;194.48;;;185.18;;
11269;SDS011;5692;48.956;9.200;2023-09-12T04:13:15;183.50;;;174.70;;
11269;SDS011;5692;48.956;9.200;2023-09-12T04:15:41;190.03;;;180.93;;
11269;SDS011;5692;48.956;9.200;2023-09-12T04:18:07;187.57;;;178.60;;
11269;SDS011;5692;48.956;9.200;2023-09-12T04:20:33;197.52;;;188.05;;
11269;SDS011;5692;48.956;9.200;2023-09-12T04:23:02;194.27;;;184.97;;
11269;SDS011;5692;48.956;9.200;2023-09-12T04:25:32;188.65;;;179.65;;
11269;SDS011;5692;48.956;9.200;2023-09-12T04:27:58;184.23;;;175.43;;
11269;SDS011;5692;48.956;9.200;2023-09-12T04:30:24;194.30;;;185.00;;
11269;SDS011;5692;48.956;9.200;2023-09-12T04:32:50;189.85;;;180.77;;
11269;SDS011;5692;48.956;9.200;2023-09-12T04:35:16;199.30;;;189.77;;
11269;SDS011;5692;48.956;9.200;2023-09-12T04:37:44;191.00;;;181.85;;
11269;SDS011;5692;48.956;9.200;2023-09-12T04:40:10;197.63;;;188.17;;
11269;SDS011;5692;48.956;9.200;2023-09-12T04:42:36;188.57;;;179.55;;
11269;SDS011;5692;48.956;9.200;2023-09-12T04:45:02;189.87;;;180.77;;
11269;SDS011;5692;48.956;9.200;2023-09-12T04:47:28;183.73;;;174.93;;
11269;SDS011;5692;48.956;9.200;2023-09-12T04:49:54;194.93;;;185.63;;
11269;SDS011;5692;48.956;9.200;2023-09-12T04:52:20;184.23;;;175.43;;
11269;SDS011;5692;48.956;9.200;2023-09-12T04:54:46;187.73;;;178.73;;
11269;SDS011;5692;48.956;9.200;2023-09-12T04:57:12;198.13;;;188.63;;
11269;SDS011;5692;48.956;9.200;2023-09-12T04:59:38;195.57;;;186.20;;
11269;SDS011;5692;48.956;9.200;2023-09-12T05:02:04;188.80;;;179.77;;
11269;SDS011;5692;48.956;9.200;2023-09-12T05:04:30;179.02;;;170.48;;
11269;SDS011;5692;48.956;9.200;2023-09-12T05:06:57;195.00;;;185.70;;
11269;SDS011;5692;48.956;9.200;2023-09-12T05:09:23;188.63;;;179.60;;
11269;SDS011;5692;48.956;9.200;2023-09-12T05:11:49;189.52;;;180.43;;
11269;SDS011;5692;48.956;9.200;2023-09-12T05:14:15;186.95;;;178.00;;
11269;SDS011;5692;48.956;9.200;2023-09-12T05:16:41;169.60;;;161.50;;
11269;SDS011;5692;48.956;9.200;2023-09-12T05:19:07;178.55;;;170.00;;
11269;SDS011;5692;48.956;9.200;2023-09-12T05:21:33;184.98;;;176.13;;
11269;SDS011;5692;48.956;9.200;2023-09-12T05:23:59;181.73;;;173.02;;
11269;SDS011;5692;48.956;9.200;2023-09-12T05:26:24;192.60;;;183.37;;
11269;SDS011;5692;48.956;9.200;2023-09-12T05:28:51;185.88;;;176.98;;
11269;SDS011;5692;48.956;9.200;2023-09-12T05:31:17;183.48;;;174.68;;
11269;SDS011;5692;48.956;9.200;2023-09-12T05:33:43;187.10;;;178.13;;
11269;SDS011;5692;48.956;9.200;2023-09-12T05:36:09;202.13;;;192.47;;
11269;SDS011;5692;48.956;9.200;2023-09-12T05:38:35;187.00;;;178.02;;
11269;SDS011;5692;48.956;9.200;2023-09-12T05:41:01;181.40;;;172.70;;
11269;SDS011;5692;48.956;9.200;2023-09-12T05:43:27;169.23;;;161.13;;
11269;SDS011;5692;48.956;9.200;2023-09-12T05:45:53;178.20;;;169.68;;
11269;SDS011;5692;48.956;9.200;2023-09-12T05:48:19;188.20;;;179.18;;
11269;SDS011;5692;48.956;9.200;2023-09-12T05:50:45;193.93;;;184.63;;
11269;SDS011;5692;48.956;9.200;2023-09-12T05:53:11;191.70;;;182.53;;
11269;SDS011;5692;48.956;9.200;2023-09-12T05:55:37;176.60;;;168.10;;
11269;SDS011;5692;48.956;9.200;2023-09-12T05:58:04;187.32;;;178.35;;
11269;SDS011;5692;48.956;9.200;2023-09-12T06:00:31;209.13;;;199.10;;
11269;SDS011;5692;48.956;9.200;2023-09-12T06:02:56;201.02;;;191.43;;
11269;SDS011;5692;48.956;9.200;2023-09-12T06:05:22;188.13;;;179.13;;
11269;SDS011;5692;48.956;9.200;2023-09-12T06:07:48;194.10;;;184.80;;
11269;SDS011;5692;48.956;9.200;2023-09-12T06:10:14;203.33;;;193.63;;
11269;SDS011;5692;48.956;9.200;2023-09-12T06:12:41;206.93;;;197.02;;
11269;SDS011;5692;48.956;9.200;2023-09-12T06:15:07;185.18;;;176.30;;
11269;SDS011;5692;48.956;9.200;2023-09-12T06:17:33;192.27;;;183.07;;
11269;SDS011;5692;48.956;9.200;2023-09-12T06:19:59;197.73;;;188.25;;
11269;SDS011;5692;48.956;9.200;2023-09-12T06:22:25;205.05;;;195.25;;
11269;SDS011;5692;48.956;9.200;2023-09-12T06:24:51;212.23;;;202.02;;
11269;SDS011;5692;48.956;9.200;2023-09-12T06:32:24;195.55;;;186.15;;
11269;SDS011;5692;48.956;9.200;2023-09-12T06:38:02;217.40;;;207.00;;
11269;SDS011;5692;48.956;9.200;2023-09-12T06:40:28;211.30;;;201.20;;
11269;SDS011;5692;48.956;9.200;2023-09-12T06:42:54;215.75;;;205.45;;
11269;SDS011;5692;48.956;9.200;2023-09-12T06:45:20;203.20;;;193.50;;
11269;SDS011;5692;48.956;9.200;2023-09-12T06:47:46;212.37;;;202.20;;
11269;SDS011;5692;48.956;9.200;2023-09-12T06:50:12;230.97;;;219.93;;
11269;SDS011;5692;48.956;9.200;2023-09-12T06:52:38;211.87;;;201.73;;
11269;SDS011;5692;48.956;9.200;2023-09-12T06:55:04;223.17;;;212.47;;
11269;SDS011;5692;48.956;9.200;2023-09-12T06:57:30;219.98;;;209.45;;
11269;SDS011;5692;48.956;9.200;2023-09-12T06:59:56;205.33;;;195.53;;
11269;SDS011;5692;48.956;9.200;2023-09-12T07:02:28;213.98;;;203.77;;
11269;SDS011;5692;48.956;9.200;2023-09-12T07:04:57;224.90;;;214.10;;
11269;SDS011;5692;48.956;9.200;2023-09-12T07:07:24;239.68;;;228.20;;
11269;SDS011;5692;48.956;9.200;2023-09-12T07:09:50;230.07;;;219.05;;
11269;SDS011;5692;48.956;9.200;2023-09-12T07:12:16;229.82;;;218.82;;
11269;SDS011;5692;48.956;9.200;2023-09-12T07:14:42;228.85;;;217.90;;
11269;SDS011;5692;48.956;9.200;2023-09-12T07:17:08;219.45;;;208.95;;
11269;SDS011;5692;48.956;9.200;2023-09-12T07:19:35;209.68;;;199.65;;
11269;SDS011;5692;48.956;9.200;2023-09-12T07:22:01;223.50;;;212.80;;
11269;SDS011;5692;48.956;9.200;2023-09-12T07:24:28;215.90;;;205.60;;
11269;SDS011;5692;48.956;9.200;2023-09-12T07:26:54;237.43;;;226.07;;
11269;SDS011;5692;48.956;9.200;2023-09-12T07:29:20;221.98;;;211.38;;
11269;SDS011;5692;48.956;9.200;2023-09-12T07:31:46;217.77;;;207.37;;
11269;SDS011;5692;48.956;9.200;2023-09-12T07:34:12;234.47;;;223.27;;
11269;SDS011;5692;48.956;9.200;2023-09-12T07:36:39;206.73;;;196.85;;
11269;SDS011;5692;48.956;9.200;2023-09-12T07:39:05;227.23;;;216.37;;
11269;SDS011;5692;48.956;9.200;2023-09-12T07:41:32;232.60;;;221.50;;
11269;SDS011;5692;48.956;9.200;2023-09-12T07:43:58;214.37;;;204.10;;
11269;SDS011;5692;48.956;9.200;2023-09-12T07:46:26;228.82;;;217.90;;
11269;SDS011;5692;48.956;9.200;2023-09-12T07:48:52;220.07;;;209.57;;
11269;SDS011;5692;48.956;9.200;2023-09-12T07:51:18;226.02;;;215.23;;
11269;SDS011;5692;48.956;9.200;2023-09-12T07:53:44;222.45;;;211.82;;
11269;SDS011;5692;48.956;9.200;2023-09-12T07:56:10;230.20;;;219.20;;
11269;SDS011;5692;48.956;9.200;2023-09-12T07:58:36;230.53;;;219.53;;
11269;SDS011;5692;48.956;9.200;2023-09-12T08:01:08;226.82;;;215.98;;
11269;SDS011;5692;48.956;9.200;2023-09-12T08:03:35;224.32;;;213.63;;
11269;SDS011;5692;48.956;9.200;2023-09-12T08:06:02;217.32;;;206.93;;
11269;SDS011;5692;48.956;9.200;2023-09-12T08:08:28;219.63;;;209.13;;
11269;SDS011;5692;48.956;9.200;2023-09-12T08:10:55;224.57;;;213.82;;
11269;SDS011;5692;48.956;9.200;2023-09-12T08:13:22;219.23;;;208.73;;
11269;SDS011;5692;48.956;9.200;2023-09-12T08:15:48;236.23;;;224.93;;
11269;SDS011;5692;48.956;9.200;2023-09-12T08:18:14;240.13;;;228.63;;
11269;SDS011;5692;48.956;9.200;2023-09-12T08:20:40;220.13;;;209.60;;
11269;SDS011;5692;48.956;9.200;2023-09-12T08:23:06;219.32;;;208.82;;
11269;SDS011;5692;48.956;9.200;2023-09-12T08:25:32;228.80;;;217.85;;
11269;SDS011;5692;48.956;9.200;2023-09-12T08:27:58;224.38;;;213.63;;
11269;SDS011;5692;48.956;9.200;2023-09-12T08:30:24;224.57;;;213.83;;
11269;SDS011;5692;48.956;9.200;2023-09-12T08:32:50;230.27;;;219.27;;
11269;SDS011;5692;48.956;9.200;2023-09-12T08:35:16;239.40;;;227.93;;
11269;SDS011;5692;48.956;9.200;2023-09-12T08:37:42;235.27;;;224.00;;
11269;SDS011;5692;48.956;9.200;2023-09-12T08:40:09;227.88;;;216.98;;
11269;SDS011;5692;48.956;9.200;2023-09-12T08:42:39;227.50;;;216.63;;
11269;SDS011;5692;48.956;9.200;2023-09-12T08:45:15;233.90;;;222.70;;
11269;SDS011;5692;48.956;9.200;2023-09-12T08:47:42;246.97;;;235.17;;
11269;SDS011;5692;48.956;9.200;2023-09-12T08:50:09;250.97;;;238.97;;
11269;SDS011;5692;48.956;9.200;2023-09-12T08:52:36;251.27;;;239.27;;
11269;SDS011;5692;48.956;9.200;2023-09-12T08:55:02;249.70;;;237.77;;
11269;SDS011;5692;48.956;9.200;2023-09-12T08:57:29;252.93;;;240.83;;
11269;SDS011;5692;48.956;9.200;2023-09-12T08:59:56;252.33;;;240.27;;
11269;SDS011;5692;48.956;9.200;2023-09-12T09:02:22;241.67;;;230.07;;
11269;SDS011;5692;48.956;9.200;2023-09-12T09:04:51;272.10;;;259.10;;
11269;SDS011;5692;48.956;9.200;2023-09-12T09:07:17;271.50;;;258.53;;
11269;SDS011;5692;48.956;9.200;2023-09-12T09:09:43;263.93;;;251.33;;
11269;SDS011;5692;48.956;9.200;2023-09-12T09:12:10;238.23;;;226.83;;
11269;SDS011;5692;48.956;9.200;2023-09-12T09:14:36;224.50;;;213.77;;
11269;SDS011;5692;48.956;9.200;2023-09-12T09:17:02;231.13;;;220.07;;
11269;SDS011;5692;48.956;9.200;2023-09-12T09:20:01;279.53;;;266.17;;
11269;SDS011;5692;48.956;9.200;2023-09-12T09:22:20;263.07;;;250.50;;
11269;SDS011;5692;48.956;9.200;2023-09-12T09:24:48;272.37;;;259.33;;
11269;SDS011;5692;48.956;9.200;2023-09-12T09:27:32;252.47;;;240.40;;
11269;SDS011;5692;48.956;9.200;2023-09-12T09:30:04;246.93;;;235.10;;
11269;SDS011;5692;48.956;9.200;2023-09-12T09:32:30;281.77;;;268.27;;
11269;SDS011;5692;48.956;9.200;2023-09-12T09:34:56;14.07;;;9.70;;
11269;SDS011;5692;48.956;9.200;2023-09-12T09:37:22;278.77;;;265.43;;
11269;SDS011;5692;48.956;9.200;2023-09-12T09:39:48;272.90;;;259.87;;
11269;SDS011;5692;48.956;9.200;2023-09-12T09:42:17;252.97;;;240.87;;
11269;SDS011;5692;48.956;9.200;2023-09-12T09:44:43;243.43;;;231.80;;
11269;SDS011;5692;48.956;9.200;2023-09-12T09:47:09;309.07;;;294.30;;
11269;SDS011;5692;48.956;9.200;2023-09-12T09:49:35;296.47;;;282.30;;
11269;SDS011;5692;48.956;9.200;2023-09-12T09:52:04;11.13;;;10.40;;
11269;SDS011;5692;48.956;9.200;2023-09-12T09:54:31;18.23;;;12.13;;
11269;SDS011;5692;48.956;9.200;2023-09-12T09:56:57;150.27;;;143.07;;
11269;SDS011;5692;48.956;9.200;2023-09-12T09:59:24;187.10;;;178.13;;
11269;SDS011;5692;48.956;9.200;2023-09-12T10:01:51;224.37;;;213.67;;
11269;SDS011;5692;48.956;9.200;2023-09-12T10:04:23;279.90;;;266.50;;
11269;SDS011;5692;48.956;9.200;2023-09-12T10:06:52;300.17;;;285.87;;
11269;SDS011;5692;48.956;9.200;2023-09-12T10:09:20;304.80;;;290.23;;
11269;SDS011;5692;48.956;9.200;2023-09-12T10:11:47;280.10;;;266.70;;
11269;SDS011;5692;48.956;9.200;2023-09-12T10:14:15;12.27;;;9.30;;
11269;SDS011;5692;48.956;9.200;2023-09-12T10:16:48;277.50;;;264.20;;
11269;SDS011;5692;48.956;9.200;2023-09-12T10:19:17;290.27;;;276.40;;
11269;SDS011;5692;48.956;9.200;2023-09-12T10:24:30;311.33;;;296.47;;
11269;SDS011;5692;48.956;9.200;2023-09-12T10:26:59;300.23;;;285.90;;
11269;SDS011;5692;48.956;9.200;2023-09-12T10:29:26;294.77;;;280.67;;
11269;SDS011;5692;48.956;9.200;2023-09-12T10:31:52;258.57;;;246.20;;
11269;SDS011;5692;48.956;9.200;2023-09-12T10:34:18;264.87;;;252.20;;
11269;SDS011;5692;48.956;9.200;2023-09-12T10:36:45;270.03;;;257.13;;
11269;SDS011;5692;48.956;9.200;2023-09-12T10:39:13;246.50;;;234.70;;
11269;SDS011;5692;48.956;9.200;2023-09-12T10:41:40;292.33;;;278.37;;
11269;SDS011;5692;48.956;9.200;2023-09-12T10:44:09;248.67;;;236.77;;
11269;SDS011;5692;48.956;9.200;2023-09-12T10:46:38;262.53;;;250.00;;
11269;SDS011;5692;48.956;9.200;2023-09-12T10:49:07;259.30;;;246.90;;
11269;SDS011;5692;48.956;9.200;2023-09-12T10:51:39;252.43;;;240.33;;
11269;SDS011;5692;48.956;9.200;2023-09-12T10:54:08;263.53;;;250.93;;
11269;SDS011;5692;48.956;9.200;2023-09-12T10:56:35;260.03;;;247.60;;
11269;SDS011;5692;48.956;9.200;2023-09-12T11:01:30;240.23;;;228.73;;
11269;SDS011;5692;48.956;9.200;2023-09-12T11:03:57;239.83;;;228.37;;
11269;SDS011;5692;48.956;9.200;2023-09-12T11:06:27;280.97;;;267.57;;
11269;SDS011;5692;48.956;9.200;2023-09-12T11:11:38;264.77;;;252.10;;
11269;SDS011;5692;48.956;9.200;2023-09-12T11:14:06;276.50;;;263.30;;
11269;SDS011;5692;48.956;9.200;2023-09-12T11:16:32;261.70;;;249.17;;
11269;SDS011;5692;48.956;9.200;2023-09-12T11:21:52;246.87;;;235.07;;
11269;SDS011;5692;48.956;9.200;2023-09-12T11:24:18;267.90;;;255.10;;
11269;SDS011;5692;48.956;9.200;2023-09-12T11:27:01;293.50;;;279.47;;
11269;SDS011;5692;48.956;9.200;2023-09-12T11:29:34;280.53;;;267.13;;
11269;SDS011;5692;48.956;9.200;2023-09-12T11:32:01;264.47;;;251.83;;
11269;SDS011;5692;48.956;9.200;2023-09-12T11:34:28;303.97;;;289.43;;
11269;SDS011;5692;48.956;9.200;2023-09-12T11:36:57;300.57;;;286.20;;
11269;SDS011;5692;48.956;9.200;2023-09-12T11:39:27;276.90;;;263.67;;
11269;SDS011;5692;48.956;9.200;2023-09-12T11:41:53;251.40;;;239.40;;
11269;SDS011;5692;48.956;9.200;2023-09-12T11:44:20;290.50;;;276.63;;
11269;SDS011;5692;48.956;9.200;2023-09-12T11:46:47;265.37;;;252.67;;
11269;SDS011;5692;48.956;9.200;2023-09-12T11:49:14;269.57;;;256.70;;
11269;SDS011;5692;48.956;9.200;2023-09-12T11:51:47;264.53;;;251.90;;
11269;SDS011;5692;48.956;9.200;2023-09-12T11:54:14;285.17;;;271.53;;
11269;SDS011;5692;48.956;9.200;2023-09-12T11:56:40;276.43;;;263.23;;
11269;SDS011;5692;48.956;9.200;2023-09-12T11:59:06;12.00;;;9.00;;
11269;SDS011;5692;48.956;9.200;2023-09-12T12:01:33;9.77;;;8.10;;
11269;SDS011;5692;48.956;9.200;2023-09-12T12:03:59;75.30;;;71.67;;
11269;SDS011;5692;48.956;9.200;2023-09-12T12:06:25;289.60;;;275.77;;
11269;SDS011;5692;48.956;9.200;2023-09-12T12:08:51;281.43;;;267.97;;
11269;SDS011;5692;48.956;9.200;2023-09-12T12:11:19;285.67;;;272.00;;
11269;SDS011;5692;48.956;9.200;2023-09-12T12:13:45;288.33;;;274.57;;
11269;SDS011;5692;48.956;9.200;2023-09-12T12:16:18;289.90;;;276.03;;
11269;SDS011;5692;48.956;9.200;2023-09-12T12:18:44;271.70;;;258.70;;
11269;SDS011;5692;48.956;9.200;2023-09-12T12:21:10;284.20;;;270.60;;
11269;SDS011;5692;48.956;9.200;2023-09-12T12:23:36;274.13;;;261.03;;
11269;SDS011;5692;48.956;9.200;2023-09-12T12:26:11;287.30;;;273.57;;
11269;SDS011;5692;48.956;9.200;2023-09-12T12:28:38;277.63;;;264.37;;
11269;SDS011;5692;48.956;9.200;2023-09-12T12:31:04;290.83;;;276.93;;
11269;SDS011;5692;48.956;9.200;2023-09-12T12:33:30;273.70;;;260.60;;
11269;SDS011;5692;48.956;9.200;2023-09-12T12:36:05;285.07;;;271.43;;
11269;SDS011;5692;48.956;9.200;2023-09-12T12:38:36;288.90;;;275.10;;
11269;SDS011;5692;48.956;9.200;2023-09-12T12:41:02;294.63;;;280.53;;
11269;SDS011;5692;48.956;9.200;2023-09-12T12:43:28;281.00;;;267.57;;
11269;SDS011;5692;48.956;9.200;2023-09-12T12:45:56;291.40;;;277.50;;
11269;SDS011;5692;48.956;9.200;2023-09-12T12:48:31;292.90;;;278.90;;
11269;SDS011;5692;48.956;9.200;2023-09-12T12:50:58;278.77;;;265.43;;
11269;SDS011;5692;48.956;9.200;2023-09-12T12:53:37;282.30;;;268.80;;
11269;SDS011;5692;48.956;9.200;2023-09-12T12:56:06;288.27;;;274.47;;
11269;SDS011;5692;48.956;9.200;2023-09-12T12:58:32;273.90;;;260.80;;
11269;SDS011;5692;48.956;9.200;2023-09-12T13:01:00;288.07;;;274.33;;
11269;SDS011;5692;48.956;9.200;2023-09-12T13:03:26;293.80;;;279.80;;
11269;SDS011;5692;48.956;9.200;2023-09-12T13:05:52;294.17;;;280.07;;
11269;SDS011;5692;48.956;9.200;2023-09-12T13:08:17;300.33;;;285.97;;
11269;SDS011;5692;48.956;9.200;2023-09-12T13:10:44;291.47;;;277.57;;
11269;SDS011;5692;48.956;9.200;2023-09-12T13:13:10;300.00;;;285.67;;
11269;SDS011;5692;48.956;9.200;2023-09-12T13:15:47;306.20;;;291.57;;
11269;SDS011;5692;48.956;9.200;2023-09-12T13:18:13;315.50;;;300.43;;
11269;SDS011;5692;48.956;9.200;2023-09-12T13:20:39;311.57;;;296.67;;
11269;SDS011;5692;48.956;9.200;2023-09-12T13:23:05;304.63;;;290.07;;
11269;SDS011;5692;48.956;9.200;2023-09-12T13:25:34;292.73;;;278.73;;
11269;SDS011;5692;48.956;9.200;2023-09-12T13:28:00;285.27;;;271.63;;
11269;SDS011;5692;48.956;9.200;2023-09-12T13:30:26;295.30;;;281.20;;
11269;SDS011;5692;48.956;9.200;2023-09-12T13:32:52;284.20;;;270.60;;
11269;SDS011;5692;48.956;9.200;2023-09-12T13:35:18;274.00;;;260.90;;
11269;SDS011;5692;48.956;9.200;2023-09-12T13:37:44;279.87;;;266.50;;
11269;SDS011;5692;48.956;9.200;2023-09-12T13:40:10;273.60;;;260.50;;
11269;SDS011;5692;48.956;9.200;2023-09-12T13:42:37;280.40;;;267.00;;
11269;SDS011;5692;48.956;9.200;2023-09-12T13:45:03;261.47;;;248.97;;
11269;SDS011;5692;48.956;9.200;2023-09-12T13:47:30;261.27;;;248.80;;
11269;SDS011;5692;48.956;9.200;2023-09-12T13:49:57;268.00;;;255.20;;
11269;SDS011;5692;48.956;9.200;2023-09-12T13:52:25;263.73;;;251.13;;
11269;SDS011;5692;48.956;9.200;2023-09-12T13:54:51;261.07;;;248.57;;
11269;SDS011;5692;48.956;9.200;2023-09-12T13:57:17;276.37;;;263.17;;
11269;SDS011;5692;48.956;9.200;2023-09-12T13:59:43;266.73;;;253.97;;
11269;SDS011;5692;48.956;9.200;2023-09-12T14:02:09;251.00;;;239.00;;
11269;SDS011;5692;48.956;9.200;2023-09-12T14:04:36;269.90;;;257.00;;
11269;SDS011;5692;48.956;9.200;2023-09-12T14:07:02;281.27;;;267.87;;
11269;SDS011;5692;48.956;9.200;2023-09-12T14:09:28;264.80;;;252.13;;
11269;SDS011;5692;48.956;9.200;2023-09-12T14:11:54;277.80;;;264.50;;
11269;SDS011;5692;48.956;9.200;2023-09-12T14:14:20;266.60;;;253.87;;
11269;SDS011;5692;48.956;9.200;2023-09-12T14:16:46;278.87;;;265.53;;
11269;SDS011;5692;48.956;9.200;2023-09-12T14:19:12;249.03;;;237.13;;
11269;SDS011;5692;48.956;9.200;2023-09-12T14:21:38;268.20;;;255.40;;
11269;SDS011;5692;48.956;9.200;2023-09-12T14:24:04;277.67;;;264.37;;
11269;SDS011;5692;48.956;9.200;2023-09-12T14:26:30;284.67;;;271.07;;
11269;SDS011;5692;48.956;9.200;2023-09-12T14:28:56;273.73;;;260.67;;
11269;SDS011;5692;48.956;9.200;2023-09-12T14:31:22;288.97;;;275.17;;